Parker, WA (98939)

5:16 PM PDT on May 03, 2015 (GMT -0700)
Sunnyslope Ranch | | Change Station
CLOSE
Current Station
Personal Weather Station
Location: Wapato, WA
Elevation: 1023 ft
Nearby Weather Stations

Elev 1023 ft 46.48 °N, 120.36 °W | Updated 14 seconds ago

Clear
Clear
81.0 °F
Feels Like 79 °F
N
0.7
Wind Variable Wind from SSE
Gusts 5.4 mph

Today
High -- | Low -- °F
--% Chance of Precip.
Yesterday
High -- | Low -- °F
Precip. -- in
5:44 AM 8:13 PM
Full, 100% visible
Pressure 29.85 in
Visibility 10.0 miles
Clouds Few 8000 ft
Heat Index 79 °F
Dew Point 6 °F
Humidity 11%
Rainfall 0.00 in
Snow Depth Not available.
UV 0.0 out of 12
Pollen 9.20 out of 12
Air Quality Not available.
Flu Activity Sporadic
METAR KYKM 032353Z 16010KT 10SM FEW080 25/M01 A2985 RMK AO2 SLP107 T02501011 10256 20200 58020

More Conditions Fewer Conditions

Pressure 29.85 in
Visibility 10.0 miles
Clouds Few 8000 ft
Heat Index 79 °F
Dew Point 6 °F
Humidity 11%
Rainfall 0.00 in
Snow Depth Not available.
UV 0.0 out of 12
Pollen 9.20 out of 12
Air Quality Not available.
Flu Activity Sporadic
METAR KYKM 032353Z 16010KT 10SM FEW080 25/M01 A2985 RMK AO2 SLP107 T02501011 10256 20200 58020

More Conditions Fewer Conditions

Nepal has a long way to go to dig out and rebuild from a devastating earthquake. We have teamed up with several charities and organizations to make contributing to the relief effort as easy as possible.
How you can help: Portlight Strategies | Red Cross

10-Day Weather Forecast

Almanac

Astronomy

May. 03, 2015 Rise Set
Actual Time
Civil Twilight
Nautical Twilight
Astronomical Twilight
Moon
Length of Visible Light
Length of Day
Tomorrow will be .
, % of the Moon is Illuminated

Today's Extremes

State Highs State Lows

Community

WunderPhotos

Upload Photos

1,818,430 photos uploaded!

WunderBlogs® & News

Nearby

Air Quality

  Air Quality AQ Index Pollutant
Not available.

Snow Depth

Station Depth Elevation

Earthquake Activity

City Distance Mag. Time & Date
Minimum magnitude displayed is 2.5.

Coastal Water Temperatures

Place Temperature

Stations

Nearby Weather Stations

Station Location Temp. Windchill Dew Point Humidity Wind Precip. Elev Updated Type